Pagina principale
METAR-TAF:

METAR-TAF

Aeroporti :

Aeroporto Internazionale Julius Nyerere

Dar es Salaam, Tanzania

latitudine: 06-52S, longitudine: 039-12E, altezza: 55 m

Osservazione

Il bollettino è stato emesso 29 minuti fa, alle 19:00 UTC
Vento 5 kt da est/sud-est
Temperature 23°C
Umidità 83%
Pressione 1020 hPa
Visibilità 10 km o più
Cielo sereno

METAR: HTDA 141900Z 12005KT 9999 SKC 23/20 Q1020 NOSIG

Ora: 22:29 (19:29 UTC)

Previsione

Il bollettino è stato emesso 2 ore e 29 minuti fa, alle 17:00 UTC
Previsione valida dal 14 alle 18 UTC al 15 alle 24 UTC
Vento 5 kt da sud-est
Visibilità 10 km o più
Poco nuvoloso ad un'altezza di 1600 ft
Evoluzione graduale
dal 14 alle 19 UTC al 14 alle 22 UTC
Vento kt da nord
Probabilità 40% :
Temporaneamente
dal 15 alle 06 UTC al 15 alle 10 UTC
Vento 10 kt da est/sud-est
Nuvoloso ad un'altezza di 1500 ft
pioggia

TAF: HTDA 141700Z 1418/1524 13005KT 9999 FEW016 BECMG 1419/1422 00000KT PROB40 TEMPO 1506/1510 12010KT RA BKN015

Osservazioni e previsioni meteorologiche di più di 4000 aeroporti (messaggi METAR e TAF).

Le stazioni disponibili sono rappresentate dai dischi gialli e rossi sulla carta.

Puntare il mouse per vedere il nome della stazione.

Clicca sopra per visualizzare le osservazioni e previsioni meteorologiche.

Per cambiare la mappa : fare clic sui pulsanti verdi con una croce nera per ingrandire, il pulsante verde con un trattino per diminuire, o sulla freccia verde per le mappe adiacenti.


METAR-TAF: